createdAt,value
2022-09-02T00:01:39.018Z,14.86
2022-09-02T00:04:43.857Z,14.81
2022-09-02T00:07:45.360Z,14.77
2022-09-02T00:10:47.102Z,14.81
2022-09-02T00:13:49.624Z,14.77
2022-09-02T00:16:52.904Z,14.77
2022-09-02T00:19:56.275Z,14.73
2022-09-02T00:22:58.068Z,14.71
2022-09-02T00:25:59.645Z,14.67
2022-09-02T00:29:01.759Z,14.63
2022-09-02T00:32:05.057Z,14.60
2022-09-02T00:35:07.756Z,14.54
2022-09-02T00:38:09.550Z,14.53
2022-09-02T00:41:14.485Z,14.48
2022-09-02T00:44:17.321Z,14.46
2022-09-02T00:47:20.533Z,14.44
2022-09-02T00:50:24.421Z,14.40
2022-09-02T00:53:27.059Z,14.40
2022-09-02T00:56:32.034Z,14.37
2022-09-02T00:59:43.681Z,14.34
2022-09-02T01:02:48.628Z,14.26
2022-09-02T01:05:52.243Z,14.18
2022-09-02T01:08:57.322Z,14.20
2022-09-02T01:12:03.462Z,14.21
2022-09-02T01:15:07.381Z,14.21
2022-09-02T01:18:13.247Z,14.20
2022-09-02T01:21:14.812Z,14.18
2022-09-02T01:24:19.040Z,14.19
2022-09-02T01:27:22.585Z,14.14
2022-09-02T01:30:25.597Z,14.14
2022-09-02T01:33:27.149Z,14.12
2022-09-02T01:36:28.782Z,14.10
2022-09-02T01:39:37.005Z,14.08
2022-09-02T01:42:40.494Z,14.09
2022-09-02T01:45:43.491Z,14.07
2022-09-02T01:48:45.102Z,14.05
2022-09-02T01:51:46.685Z,14.04
2022-09-02T01:54:49.818Z,14.04
2022-09-02T01:57:51.669Z,14.01
2022-09-02T02:00:53.657Z,13.99
2022-09-02T02:03:55.926Z,14.00
2022-09-02T02:06:58.130Z,14.02
2022-09-02T02:10:01.224Z,13.96
2022-09-02T02:13:03.122Z,13.93
2022-09-02T02:16:04.866Z,13.92
2022-09-02T02:19:06.702Z,13.93
2022-09-02T02:22:08.275Z,13.91
2022-09-02T02:25:12.189Z,13.89
2022-09-02T02:28:14.723Z,13.86
2022-09-02T02:31:16.388Z,13.81
2022-09-02T02:34:19.240Z,13.82
2022-09-02T02:37:25.275Z,13.80
2022-09-02T02:40:31.922Z,13.73
2022-09-02T02:43:34.892Z,13.75
2022-09-02T02:46:36.778Z,13.76
2022-09-02T02:49:38.905Z,13.75
2022-09-02T02:52:41.122Z,13.73
2022-09-02T02:55:44.521Z,13.72
2022-09-02T02:58:51.720Z,13.73
2022-09-02T03:01:53.375Z,13.68
2022-09-02T03:04:56.522Z,13.63
2022-09-02T03:07:58.144Z,13.60
2022-09-02T03:11:01.200Z,13.56
2022-09-02T03:14:02.720Z,13.52
2022-09-02T03:17:04.314Z,13.51
2022-09-02T03:20:09.512Z,13.49
2022-09-02T03:23:12.923Z,13.46
2022-09-02T03:26:19.129Z,13.45
2022-09-02T03:29:21.124Z,13.44
2022-09-02T03:32:22.764Z,13.41
2022-09-02T03:35:28.630Z,13.38
2022-09-02T03:38:30.123Z,13.37
2022-09-02T03:41:33.218Z,13.38
2022-09-02T03:44:35.157Z,13.35
2022-09-02T03:47:37.325Z,13.31
2022-09-02T03:50:40.080Z,13.30
2022-09-02T03:53:42.042Z,13.30
2022-09-02T03:56:44.885Z,13.22
2022-09-02T03:59:47.386Z,13.17
2022-09-02T04:02:50.145Z,13.16
2022-09-02T04:05:52.917Z,13.17
2022-09-02T04:08:54.426Z,13.16
2022-09-02T04:11:57.454Z,13.09
2022-09-02T04:14:59.037Z,13.09
2022-09-02T04:18:00.790Z,13.06
2022-09-02T04:21:02.781Z,13.09
2022-09-02T04:24:04.977Z,13.15
2022-09-02T04:27:07.893Z,13.12
2022-09-02T04:30:09.931Z,13.12
2022-09-02T04:33:12.328Z,13.13
2022-09-02T04:36:14.882Z,13.07
2022-09-02T04:39:16.665Z,13.04
2022-09-02T04:42:19.577Z,13.00
2022-09-02T04:45:23.128Z,13.01
2022-09-02T04:48:26.749Z,12.98
2022-09-02T04:51:28.528Z,12.99
2022-09-02T04:54:30.813Z,12.98
2022-09-02T04:57:34.829Z,12.96
2022-09-02T05:00:40.496Z,12.93
2022-09-02T05:03:42.423Z,12.97
2022-09-02T05:06:44.669Z,12.97
2022-09-02T05:09:46.838Z,12.92
2022-09-02T05:12:54.622Z,12.96
2022-09-02T05:15:56.449Z,12.99
2022-09-02T05:18:58.374Z,13.00
2022-09-02T05:22:01.929Z,12.99
2022-09-02T05:25:03.792Z,13.05
2022-09-02T05:28:09.161Z,13.11
2022-09-02T05:31:12.903Z,13.12
2022-09-02T05:34:15.065Z,13.16
2022-09-02T05:37:16.775Z,13.22
2022-09-02T05:40:22.575Z,13.24
2022-09-02T05:43:27.499Z,13.31
2022-09-02T05:46:32.481Z,13.35
2022-09-02T05:49:34.204Z,13.42
2022-09-02T05:52:35.972Z,13.46
2022-09-02T05:55:37.538Z,13.53
2022-09-02T05:58:40.519Z,13.61
2022-09-02T06:01:42.601Z,13.64
2022-09-02T06:04:45.734Z,13.70
2022-09-02T06:07:47.499Z,13.73
2022-09-02T06:10:49.157Z,13.81
2022-09-02T06:13:56.563Z,13.86
2022-09-02T06:16:58.860Z,13.92
2022-09-02T06:20:00.515Z,14.00
2022-09-02T06:23:01.997Z,14.06
2022-09-02T06:26:07.114Z,14.13
2022-09-02T06:29:10.669Z,14.20
2022-09-02T06:32:12.257Z,14.28
2022-09-02T06:35:14.331Z,14.32
2022-09-02T06:38:17.372Z,14.38
2022-09-02T06:41:20.225Z,14.47
2022-09-02T06:44:23.439Z,14.54
2022-09-02T06:47:25.012Z,14.59
2022-09-02T06:50:26.635Z,14.65
2022-09-02T06:53:32.821Z,14.70
2022-09-02T06:56:35.088Z,14.75
2022-09-02T06:59:38.342Z,14.83
2022-09-02T07:02:39.898Z,14.89
2022-09-02T07:05:41.539Z,14.94
2022-09-02T07:08:44.347Z,15.03
2022-09-02T07:11:50.293Z,15.09
2022-09-02T07:14:54.242Z,15.18
2022-09-02T07:17:55.771Z,15.32
2022-09-02T07:20:58.351Z,15.46
2022-09-02T07:24:00.700Z,15.58
2022-09-02T07:27:02.839Z,15.65
2022-09-02T07:30:06.915Z,15.71
2022-09-02T07:33:08.909Z,15.87
2022-09-02T07:36:11.165Z,15.93
2022-09-02T07:39:14.986Z,15.96
2022-09-02T07:42:16.722Z,15.96
2022-09-02T07:45:21.758Z,16.06
2022-09-02T07:48:23.357Z,16.12
2022-09-02T07:51:29.169Z,16.29
2022-09-02T07:54:32.750Z,16.28
2022-09-02T07:57:34.394Z,16.26
2022-09-02T08:00:38.259Z,16.36
2022-09-02T08:03:41.554Z,16.52
2022-09-02T08:06:43.358Z,16.59
2022-09-02T08:09:45.011Z,16.69
2022-09-02T08:12:47.195Z,16.70
2022-09-02T08:15:50.889Z,16.86
2022-09-02T08:18:52.629Z,16.84
2022-09-02T08:21:55.426Z,16.91
2022-09-02T08:24:57.004Z,17.27
2022-09-02T08:27:58.976Z,17.38
2022-09-02T08:31:05.988Z,17.46
2022-09-02T08:34:07.776Z,17.53
2022-09-02T08:37:09.258Z,17.67
2022-09-02T08:40:14.634Z,17.71
2022-09-02T08:43:26.029Z,17.88
2022-09-02T08:46:31.300Z,18.04
2022-09-02T08:49:35.466Z,18.07
2022-09-02T08:52:39.931Z,18.27
2022-09-02T08:55:45.082Z,18.23
2022-09-02T08:58:49.861Z,18.11
2022-09-02T09:01:56.620Z,18.11
2022-09-02T09:05:10.213Z,18.13
2022-09-02T09:08:19.649Z,18.23
2022-09-02T09:11:29.012Z,18.18
2022-09-02T09:14:34.204Z,18.33
2022-09-02T09:17:42.514Z,18.36
2022-09-02T09:20:45.114Z,18.57
2022-09-02T09:23:46.758Z,18.55
2022-09-02T09:26:48.423Z,18.70
2022-09-02T09:29:55.473Z,18.86
2022-09-02T09:33:00.152Z,18.95
2022-09-02T09:36:04.211Z,19.19
2022-09-02T09:39:17.278Z,19.29
2022-09-02T09:42:30.206Z,19.45
2022-09-02T09:45:32.778Z,19.50
2022-09-02T09:48:38.881Z,19.35
2022-09-02T09:51:53.618Z,19.33
2022-09-02T09:55:13.925Z,19.36
2022-09-02T09:58:15.452Z,19.36
2022-09-02T10:01:18.536Z,19.72
2022-09-02T10:04:45.621Z,19.75
2022-09-02T10:07:53.991Z,19.76
2022-09-02T10:10:56.895Z,20.06
2022-09-02T10:14:00.032Z,20.28
2022-09-02T10:17:08.106Z,20.24
2022-09-02T10:20:18.557Z,20.18
2022-09-02T10:23:32.360Z,20.16
2022-09-02T10:26:36.705Z,20.11
2022-09-02T10:29:53.222Z,20.32
2022-09-02T10:33:16.610Z,20.45
2022-09-02T10:36:27.801Z,20.38
2022-09-02T10:39:37.786Z,20.70
2022-09-02T10:42:58.408Z,20.74
2022-09-02T10:46:01.264Z,20.48
2022-09-02T10:49:11.649Z,20.24
2022-09-02T10:52:20.812Z,20.45
2022-09-02T10:55:26.141Z,20.83
2022-09-02T10:58:35.298Z,21.00
2022-09-02T11:01:41.799Z,21.11
2022-09-02T11:04:46.550Z,21.25
2022-09-02T11:07:51.768Z,21.14
2022-09-02T11:10:57.006Z,21.12
2022-09-02T11:14:02.951Z,21.44
2022-09-02T11:17:13.236Z,21.65
2022-09-02T11:20:22.254Z,21.87
2022-09-02T11:23:32.404Z,21.85
2022-09-02T11:26:38.426Z,21.40
2022-09-02T11:29:43.895Z,21.06
2022-09-02T11:32:50.635Z,20.81
2022-09-02T11:35:52.542Z,20.77
2022-09-02T11:38:59.439Z,20.63
2022-09-02T11:42:09.102Z,20.61
2022-09-02T11:45:17.855Z,20.60
2022-09-02T11:48:34.581Z,20.57
2022-09-02T11:51:55.380Z,20.59
2022-09-02T11:55:06.577Z,20.51
2022-09-02T11:58:08.341Z,20.54
2022-09-02T12:01:29.595Z,20.59
2022-09-02T12:07:53.601Z,20.69
2022-09-02T12:11:01.023Z,20.89
2022-09-02T12:14:04.556Z,20.89
2022-09-02T12:17:08.214Z,20.99
2022-09-02T12:20:11.790Z,20.99
2022-09-02T12:23:39.729Z,20.87
2022-09-02T12:27:00.845Z,20.93
2022-09-02T12:30:05.653Z,21.47
2022-09-02T12:33:12.576Z,21.94
2022-09-02T12:36:33.643Z,21.97
2022-09-02T12:39:51.348Z,22.17
2022-09-02T12:42:54.079Z,22.43
2022-09-02T12:46:04.475Z,22.56
2022-09-02T12:49:12.015Z,22.69
2022-09-02T12:52:34.813Z,22.79
2022-09-02T12:55:38.825Z,22.76
2022-09-02T12:58:45.631Z,22.90
2022-09-02T13:01:51.654Z,22.89
2022-09-02T13:05:01.843Z,22.64
2022-09-02T13:08:22.349Z,22.32
2022-09-02T13:14:40.550Z,21.85
2022-09-02T13:17:54.869Z,21.96
2022-09-02T13:21:13.648Z,21.87
2022-09-02T13:24:25.607Z,21.83
2022-09-02T13:27:43.128Z,22.15
2022-09-02T13:31:03.412Z,22.50
2022-09-02T13:34:10.487Z,22.66
2022-09-02T13:37:28.785Z,22.45
2022-09-02T13:40:33.622Z,22.50
2022-09-02T13:43:35.175Z,22.67
2022-09-02T13:46:43.322Z,22.76
2022-09-02T13:49:47.254Z,22.85
2022-09-02T13:56:16.593Z,22.87
2022-09-02T13:59:31.256Z,22.50
2022-09-02T14:02:33.636Z,22.15
2022-09-02T14:05:44.053Z,22.30
2022-09-02T14:08:49.645Z,22.08
2022-09-02T14:11:53.053Z,22.15
2022-09-02T14:14:55.114Z,22.43
2022-09-02T14:18:18.426Z,22.41
2022-09-02T14:21:23.509Z,22.45
2022-09-02T14:24:26.401Z,22.52
2022-09-02T14:27:28.590Z,22.53
2022-09-02T14:30:32.534Z,22.43
2022-09-02T14:33:42.835Z,22.45
2022-09-02T14:36:45.888Z,22.61
2022-09-02T14:40:03.225Z,22.70
2022-09-02T14:43:12.053Z,22.88
2022-09-02T14:46:25.301Z,22.87
2022-09-02T14:49:28.712Z,22.89
2022-09-02T14:52:35.755Z,22.85
2022-09-02T14:55:49.157Z,22.90
2022-09-02T14:58:50.948Z,22.94
2022-09-02T15:01:53.509Z,22.91
2022-09-02T15:04:55.849Z,22.78
2022-09-02T15:07:59.879Z,22.83
2022-09-02T15:11:02.171Z,22.76
2022-09-02T15:14:04.040Z,22.76
2022-09-02T15:17:09.735Z,22.83
2022-09-02T15:20:11.821Z,22.61
2022-09-02T15:23:15.902Z,22.40
2022-09-02T15:26:18.330Z,22.21
2022-09-02T15:29:20.024Z,22.08
2022-09-02T15:32:24.226Z,21.95
2022-09-02T15:35:29.505Z,21.83
2022-09-02T15:38:33.045Z,21.79
2022-09-02T15:41:35.305Z,21.83
2022-09-02T15:44:36.972Z,21.94
2022-09-02T15:47:39.032Z,21.77
2022-09-02T15:50:40.969Z,21.61
2022-09-02T15:54:03.820Z,21.54
2022-09-02T15:57:05.604Z,21.41
2022-09-02T16:00:10.874Z,21.26
2022-09-02T16:03:19.192Z,21.12
2022-09-02T16:06:21.009Z,21.00
2022-09-02T16:09:24.192Z,20.90
2022-09-02T16:12:26.135Z,20.97
2022-09-02T16:15:28.793Z,21.14
2022-09-02T16:18:31.569Z,21.30
2022-09-02T16:21:37.240Z,21.36
2022-09-02T16:24:40.333Z,21.46
2022-09-02T16:27:55.106Z,21.45
2022-09-02T16:30:59.041Z,21.31
2022-09-02T16:34:01.709Z,21.20
2022-09-02T16:37:04.845Z,21.16
2022-09-02T16:40:08.971Z,21.22
2022-09-02T16:43:11.544Z,21.29
2022-09-02T16:46:13.667Z,21.20
2022-09-02T16:49:23.093Z,21.14
2022-09-02T16:52:24.665Z,21.08
2022-09-02T16:55:27.548Z,21.07
2022-09-02T16:58:29.821Z,21.01
2022-09-02T17:01:32.710Z,20.96
2022-09-02T17:04:34.312Z,20.90
2022-09-02T17:07:35.881Z,20.80
2022-09-02T17:10:39.233Z,20.69
2022-09-02T17:13:41.617Z,20.61
2022-09-02T17:16:44.140Z,20.57
2022-09-02T17:19:45.948Z,20.45
2022-09-02T17:22:51.551Z,20.38
2022-09-02T17:25:55.685Z,20.27
2022-09-02T17:28:57.741Z,20.24
2022-09-02T17:31:59.635Z,20.21
2022-09-02T17:35:02.175Z,20.15
2022-09-02T17:38:04.569Z,20.05
2022-09-02T17:41:28.371Z,19.94
2022-09-02T17:44:34.886Z,19.87
2022-09-02T17:47:41.873Z,19.80
2022-09-02T17:50:44.067Z,19.75
2022-09-02T17:53:45.835Z,19.67
2022-09-02T17:57:00.139Z,19.59
2022-09-02T18:00:11.214Z,19.51
2022-09-02T18:03:22.617Z,19.44
2022-09-02T18:06:28.497Z,19.38
2022-09-02T18:09:31.286Z,19.32
2022-09-02T18:12:38.214Z,19.25
2022-09-02T18:15:46.557Z,19.17
2022-09-02T18:18:52.234Z,19.13
2022-09-02T18:22:08.891Z,19.06
2022-09-02T18:25:16.402Z,18.98
2022-09-02T18:28:26.532Z,18.91
2022-09-02T18:31:35.003Z,18.87
2022-09-02T18:34:43.393Z,18.83
2022-09-02T18:37:52.024Z,18.76
2022-09-02T18:41:00.038Z,18.67
2022-09-02T18:44:10.933Z,18.59
2022-09-02T18:47:15.064Z,18.51
2022-09-02T18:50:45.030Z,18.51
2022-09-02T18:53:54.968Z,18.46
2022-09-02T18:56:58.398Z,18.39
2022-09-02T19:00:06.708Z,18.32
2022-09-02T19:03:08.896Z,18.29
2022-09-02T19:06:11.991Z,18.21
2022-09-02T19:09:15.299Z,18.18
2022-09-02T19:12:16.903Z,18.14
2022-09-02T19:15:20.221Z,18.08
2022-09-02T19:18:21.941Z,18.03
2022-09-02T19:21:27.674Z,17.96
2022-09-02T19:24:32.554Z,17.88
2022-09-02T19:27:36.640Z,17.80
2022-09-02T19:30:40.642Z,17.79
2022-09-02T19:33:42.627Z,17.76
2022-09-02T19:36:46.274Z,17.69
2022-09-02T19:39:54.223Z,17.63
2022-09-02T19:42:58.558Z,17.56
2022-09-02T19:46:01.827Z,17.46
2022-09-02T19:49:03.515Z,17.45
2022-09-02T19:52:05.265Z,17.43
2022-09-02T19:55:07.697Z,17.40
2022-09-02T19:58:09.543Z,17.35
2022-09-02T20:01:12.741Z,17.36
2022-09-02T20:04:14.575Z,17.35
2022-09-02T20:07:16.118Z,17.37
2022-09-02T20:10:20.462Z,17.38
2022-09-02T20:13:30.052Z,17.37
2022-09-02T20:16:33.281Z,17.39
2022-09-02T20:19:35.125Z,17.40
2022-09-02T20:22:36.891Z,17.33
2022-09-02T20:25:44.823Z,17.31
2022-09-02T20:29:00.407Z,17.26
2022-09-02T20:32:07.715Z,17.25
2022-09-02T20:35:18.103Z,17.22
2022-09-02T20:38:40.579Z,17.24
2022-09-02T20:41:46.979Z,17.16
2022-09-02T20:44:54.579Z,17.10
2022-09-02T20:48:05.475Z,17.05
2022-09-02T20:51:10.961Z,17.06
2022-09-02T20:54:19.150Z,17.06
2022-09-02T20:57:26.458Z,17.05
2022-09-02T21:00:28.388Z,17.01
2022-09-02T21:03:40.973Z,16.97
2022-09-02T21:06:45.596Z,16.95
2022-09-02T21:09:51.426Z,16.88
2022-09-02T21:12:55.270Z,16.81
2022-09-02T21:15:58.760Z,16.74
2022-09-02T21:19:07.680Z,16.71
2022-09-02T21:22:17.076Z,16.69
2022-09-02T21:25:25.300Z,16.63
2022-09-02T21:28:33.830Z,16.61
2022-09-02T21:31:38.257Z,16.57
2022-09-02T21:34:48.946Z,16.53
2022-09-02T21:38:07.263Z,16.50
2022-09-02T21:41:27.480Z,16.47
2022-09-02T21:44:39.128Z,16.42
2022-09-02T21:47:47.523Z,16.42
2022-09-02T21:50:56.502Z,16.40
2022-09-02T21:54:04.489Z,16.35
2022-09-02T21:57:15.893Z,16.26
2022-09-02T22:00:19.149Z,16.23
2022-09-02T22:03:23.905Z,16.22
2022-09-02T22:06:31.234Z,16.22
2022-09-02T22:09:33.257Z,16.21
2022-09-02T22:12:39.753Z,16.24
2022-09-02T22:15:58.069Z,16.23
2022-09-02T22:19:04.810Z,16.23
2022-09-02T22:22:09.295Z,16.16
2022-09-02T22:25:15.790Z,16.09
2022-09-02T22:28:21.200Z,16.12
2022-09-02T22:31:26.625Z,16.11
2022-09-02T22:34:33.832Z,16.08
2022-09-02T22:37:46.093Z,15.99
2022-09-02T22:40:50.785Z,15.93
2022-09-02T22:43:56.116Z,15.90
2022-09-02T22:47:18.369Z,15.81
2022-09-02T22:50:42.489Z,15.81
2022-09-02T22:53:47.762Z,15.78
2022-09-02T22:56:53.166Z,15.81
2022-09-02T23:00:01.330Z,15.83
2022-09-02T23:03:10.780Z,15.83
2022-09-02T23:06:17.359Z,15.82
2022-09-02T23:09:23.221Z,15.81
2022-09-02T23:12:28.880Z,15.77
2022-09-02T23:15:35.639Z,15.69
2022-09-02T23:18:42.189Z,15.70
2022-09-02T23:21:47.171Z,15.75
2022-09-02T23:24:57.926Z,15.78
2022-09-02T23:28:05.013Z,15.79
2022-09-02T23:31:14.673Z,15.77
2022-09-02T23:34:30.526Z,15.76
2022-09-02T23:37:36.936Z,15.77
2022-09-02T23:40:41.783Z,15.76
2022-09-02T23:43:44.031Z,15.78
2022-09-02T23:46:52.132Z,15.74
2022-09-02T23:49:57.769Z,15.76
2022-09-02T23:53:07.056Z,15.72
2022-09-02T23:56:16.960Z,15.70
2022-09-02T23:59:27.937Z,15.66
